Time;durP1;ratioP1;P1;durP2;ratioP2;P2;SDS_P1;SDS_P2;PMS_P1;PMS_P2;Temp;Humidity;BMP_temperature;BMP_pressure;BME280_temperature;BME280_humidity;BME280_pressure;Samples;Min_cycle;Max_cycle;Signal;HPM_P1;HPM_P2
2022/09/04 00:00:18;;;;;;;10.13;6.90;;;;;;;16.64;66.67;101280.34;5109690;27;20046;-87
2022/09/04 00:03:25;;;;;;;10.68;6.90;;;;;;;16.60;67.43;101287.22;5109062;27;20030;-88
2022/09/04 00:05:57;;;;;;;7.93;6.57;;;;;;;16.51;67.27;101293.75;5126341;27;20031;-87
2022/09/04 00:08:38;;;;;;;9.23;7.07;;;;;;;16.59;67.34;101299.06;5087915;27;20035;-86
2022/09/04 00:11:51;;;;;;;9.60;7.30;;;;;;;16.48;67.43;101294.09;5113485;27;20101;-86
2022/09/04 00:14:21;;;;;;;11.15;7.43;;;;;;;16.31;67.63;101285.25;5000025;28;20094;-87
2022/09/04 00:16:58;;;;;;;9.77;6.72;;;;;;;16.28;67.96;101276.66;5035756;27;20066;-89
2022/09/04 00:19:34;;;;;;;11.07;7.00;;;;;;;16.30;67.55;101271.91;5097468;27;20051;-86
2022/09/04 00:22:33;;;;;;;9.77;7.72;;;;;;;16.23;68.01;101275.34;5105643;27;20043;-87
2022/09/04 00:25:04;;;;;;;8.85;7.18;;;;;;;16.34;67.82;101312.06;5113511;27;20066;-87
2022/09/04 00:27:43;;;;;;;10.15;7.72;;;;;;;16.39;67.78;101311.50;5109673;27;20470;-86
2022/09/04 00:30:15;;;;;;;11.13;7.50;;;;;;;16.42;67.95;101313.84;5113762;27;20042;-87
2022/09/04 00:32:48;;;;;;;10.02;7.43;;;;;;;16.12;68.12;101272.22;5098761;27;20024;-85
2022/09/04 00:35:32;;;;;;;9.77;7.78;;;;;;;16.21;68.14;101288.22;5113662;27;20027;-88
2022/09/04 00:38:40;;;;;;;10.40;7.47;;;;;;;16.32;67.80;101299.66;5105179;27;20023;-87
2022/09/04 00:41:45;;;;;;;10.40;7.88;;;;;;;16.30;68.10;101293.59;5121974;27;20072;-86
2022/09/04 00:44:32;;;;;;;12.07;7.82;;;;;;;16.12;68.84;101310.19;5129679;27;20055;-88
2022/09/04 00:47:22;;;;;;;9.90;7.97;;;;;;;16.15;68.50;101304.41;5131767;27;20029;-87
2022/09/04 00:50:10;;;;;;;13.20;8.15;;;;;;;16.15;68.79;101305.22;5117333;27;20037;-87
2022/09/04 00:52:56;;;;;;;12.52;8.05;;;;;;;16.03;69.27;101301.25;5114199;27;20589;-87
2022/09/04 00:55:30;;;;;;;;;;;;;;;16.00;69.05;101301.63;5086733;27;20041;-86
2022/09/04 00:58:23;;;;;;;12.90;8.57;;;;;;;15.88;70.01;101294.97;5130399;27;20423;-86
2022/09/04 01:00:49;;;;;;;11.60;8.43;;;;;;;15.83;69.93;101288.19;5123985;27;20277;-87
2022/09/04 01:03:17;;;;;;;11.65;9.32;;;;;;;15.76;70.06;101289.94;5096521;28;20032;-87
2022/09/04 01:06:03;;;;;;;11.35;9.18;;;;;;;15.74;70.54;101297.41;5097792;27;20035;-87
2022/09/04 01:09:00;;;;;;;11.38;8.70;;;;;;;15.69;70.53;101299.78;5127495;27;20071;-86
2022/09/04 01:11:42;;;;;;;12.15;8.52;;;;;;;15.62;70.24;101277.13;5105607;27;20454;-87
2022/09/04 01:14:18;;;;;;;15.00;8.75;;;;;;;15.61;70.83;101297.09;5114178;28;20508;-86
2022/09/04 01:17:11;;;;;;;11.05;8.63;;;;;;;15.60;70.53;101295.44;5109435;28;20030;-88
2022/09/04 01:19:57;;;;;;;12.95;9.00;;;;;;;15.55;70.81;101303.25;5114681;28;20452;-87
2022/09/04 01:22:43;;;;;;;11.95;8.65;;;;;;;15.55;70.77;101303.25;5102853;27;20468;-88
2022/09/04 01:25:46;;;;;;;11.13;8.60;;;;;;;15.50;71.22;101306.50;5145737;27;20027;-87
2022/09/04 01:28:28;;;;;;;13.57;8.93;;;;;;;15.33;71.23;101291.34;5148898;28;20032;-86
2022/09/04 01:31:32;;;;;;;10.90;8.82;;;;;;;15.43;71.47;101300.09;5110246;28;20043;-88
2022/09/04 01:34:28;;;;;;;11.40;9.57;;;;;;;15.44;71.31;101306.38;5118566;27;20129;-88
2022/09/04 01:37:18;;;;;;;12.63;9.00;;;;;;;15.44;71.22;101301.78;5122397;27;20130;-87
2022/09/04 01:39:50;;;;;;;13.75;9.50;;;;;;;15.28;71.63;101291.03;5134412;27;20092;-87
2022/09/04 01:42:32;;;;;;;11.70;9.00;;;;;;;15.24;71.60;101274.28;5118459;27;20111;-87
2022/09/04 01:44:57;;;;;;;16.38;9.50;;;;;;;15.26;71.70;101274.09;5117412;27;20027;-90
2022/09/04 01:47:46;;;;;;;11.32;9.27;;;;;;;15.35;71.40;101303.69;5093628;28;20417;-88
2022/09/04 01:50:15;;;;;;;11.15;9.00;;;;;;;15.13;71.78;101267.41;5124514;27;20035;-87
2022/09/04 01:52:52;;;;;;;11.18;9.18;;;;;;;15.23;71.60;101288.84;5115508;27;20035;-90
2022/09/04 01:55:29;;;;;;;14.52;9.63;;;;;;;15.28;71.55;101313.53;5118143;27;20039;-92
2022/09/04 01:58:13;;;;;;;11.35;9.55;;;;;;;15.30;71.96;101311.50;5134397;27;20043;-89
2022/09/04 02:01:20;;;;;;;14.38;9.13;;;;;;;15.36;71.23;101305.38;5133298;27;20047;-89
2022/09/04 02:04:08;;;;;;;10.50;9.02;;;;;;;15.41;71.04;101316.53;5128751;27;20024;-88
2022/09/04 02:06:50;;;;;;;13.95;9.43;;;;;;;15.40;71.38;101320.28;5115965;27;20045;-89
2022/09/04 02:09:33;;;;;;;13.55;9.48;;;;;;;15.38;71.24;101321.44;5131150;27;20031;-88
2022/09/04 02:12:26;;;;;;;11.57;9.50;;;;;;;15.38;70.92;101318.72;5121328;27;20398;-87
2022/09/04 02:15:11;;;;;;;14.80;9.20;;;;;;;15.34;70.99;101312.00;5113565;27;20038;-87
2022/09/04 02:17:49;;;;;;;10.88;9.30;;;;;;;15.37;70.81;101307.06;5133695;27;20019;-89
2022/09/04 02:20:17;;;;;;;13.70;10.38;;;;;;;15.29;70.61;101308.94;5112865;27;20487;-87
2022/09/04 02:23:01;;;;;;;13.07;9.50;;;;;;;15.38;70.90;101330.44;5097148;28;20118;-87
2022/09/04 02:25:34;;;;;;;12.15;9.23;;;;;;;15.34;70.91;101329.09;5130021;27;20504;-88
2022/09/04 02:28:03;;;;;;;13.30;9.82;;;;;;;15.32;70.77;101344.69;5109237;27;20053;-86
2022/09/04 02:30:53;;;;;;;12.63;9.32;;;;;;;15.20;71.24;101330.69;5136176;27;20031;-87
2022/09/04 02:33:40;;;;;;;11.63;9.38;;;;;;;15.28;71.04;101324.38;5111551;28;20039;-88
2022/09/04 02:36:14;;;;;;;11.07;9.23;;;;;;;15.37;70.93;101345.00;5052210;27;20040;-88
2022/09/04 02:39:06;;;;;;;13.00;9.38;;;;;;;15.36;71.07;101365.00;5100049;27;20027;-88
2022/09/04 02:41:50;;;;;;;13.00;9.10;;;;;;;15.26;71.25;101369.75;5114863;27;20042;-88
2022/09/04 02:44:37;;;;;;;12.52;9.00;;;;;;;15.29;71.21;101369.41;5139137;27;20035;-87
2022/09/04 02:47:12;;;;;;;11.43;8.95;;;;;;;15.30;70.79;101376.50;5130570;27;20487;-87
2022/09/04 02:50:28;;;;;;;11.30;9.27;;;;;;;15.15;71.18;101364.72;5084026;27;20031;-89
2022/09/04 02:53:03;;;;;;;13.10;9.57;;;;;;;15.34;70.74;101377.88;5114511;27;20042;-87
2022/09/04 02:56:17;;;;;;;13.30;9.45;;;;;;;15.26;70.92;101386.00;5132938;27;20035;-90
2022/09/04 02:58:56;;;;;;;11.90;8.85;;;;;;;15.25;70.65;101376.19;5064250;28;20500;-87
2022/09/04 03:01:47;;;;;;;11.18;8.98;;;;;;;15.33;70.01;101370.72;5072334;28;20032;-88
2022/09/04 03:04:26;;;;;;;11.73;8.50;;;;;;;15.28;69.96;101367.72;5074693;28;20051;-89
2022/09/04 03:07:12;;;;;;;11.02;8.60;;;;;;;15.50;69.43;101392.34;5075593;28;20036;-87
2022/09/04 03:09:54;;;;;;;11.98;9.02;;;;;;;15.53;68.77;101392.03;5089890;28;20417;-86
2022/09/04 03:12:34;;;;;;;12.55;9.27;;;;;;;15.54;68.88;101361.19;5077291;28;20115;-86
2022/09/04 03:15:12;;;;;;;14.07;9.38;;;;;;;15.69;68.59;101385.69;5070374;28;20110;-87
2022/09/04 03:17:58;;;;;;;12.30;8.88;;;;;;;15.47;69.33;101357.47;5060811;28;20040;-87
2022/09/04 03:20:29;;;;;;;13.23;9.32;;;;;;;15.54;68.90;101362.00;5078316;28;20043;-89
2022/09/04 03:23:11;;;;;;;12.65;9.00;;;;;;;15.55;68.74;101363.72;5068007;28;20572;-89
2022/09/04 03:26:03;;;;;;;10.57;8.48;;;;;;;15.69;68.25;101374.84;5084340;28;20157;-91
2022/09/04 03:28:43;;;;;;;10.60;9.05;;;;;;;15.63;67.88;101387.22;5090635;28;20032;-87
2022/09/04 03:31:30;;;;;;;12.48;8.57;;;;;;;15.70;68.03;101399.06;5087763;28;20043;-86
2022/09/04 03:34:43;;;;;;;12.18;9.40;;;;;;;15.73;67.83;101396.03;5072288;28;20044;-87
2022/09/04 03:37:14;;;;;;;11.18;8.45;;;;;;;15.67;67.85;101399.41;5085611;28;20040;-89
2022/09/04 03:40:20;;;;;;;10.30;7.95;;;;;;;15.65;67.55;101404.16;5093276;28;20423;-89
2022/09/04 03:43:07;;;;;;;13.68;10.10;;;;;;;15.76;66.79;101400.25;5049184;28;20119;-88
2022/09/04 03:45:44;;;;;;;12.75;8.75;;;;;;;15.69;67.56;101410.94;5078425;28;20044;-87
2022/09/04 03:48:22;;;;;;;13.45;9.50;;;;;;;15.65;66.43;101406.88;5086284;28;20032;-87
2022/09/04 03:50:58;;;;;;;14.32;8.65;;;;;;;15.53;65.03;101408.28;5103414;28;20119;-90
2022/09/04 03:53:40;;;;;;;11.60;7.85;;;;;;;15.59;66.90;101423.81;5077755;28;20040;-87
2022/09/04 03:56:14;;;;;;;9.90;7.38;;;;;;;15.67;66.33;101417.53;5085699;28;20040;-87
2022/09/04 03:58:59;;;;;;;9.15;7.07;;;;;;;15.72;65.25;101424.16;5099241;28;20075;-87
2022/09/04 04:01:42;;;;;;;9.95;7.82;;;;;;;15.63;66.16;101403.47;5102553;28;20040;-88
2022/09/04 04:04:14;;;;;;;9.45;7.35;;;;;;;15.75;63.74;101412.94;5096036;28;20050;-86
2022/09/04 04:07:07;;;;;;;9.63;6.10;;;;;;;15.77;63.17;101421.75;5111185;28;20046;-90
2022/09/04 04:09:52;;;;;;;10.45;7.80;;;;;;;15.72;63.97;101429.56;5092870;28;20032;-88
2022/09/04 04:12:24;;;;;;;9.02;6.75;;;;;;;15.81;63.33;101422.25;5105043;28;20027;-90
2022/09/04 04:15:05;;;;;;;9.50;7.03;;;;;;;15.81;63.67;101411.41;5110511;28;20449;-87
2022/09/04 04:17:46;;;;;;;8.15;6.57;;;;;;;15.91;63.30;101424.75;5111387;28;20038;-87
2022/09/04 04:20:37;;;;;;;8.20;6.18;;;;;;;15.91;62.65;101428.28;5101658;28;20081;-87
2022/09/04 04:23:36;;;;;;;10.20;6.70;;;;;;;16.01;62.33;101431.66;5105495;28;20118;-88
2022/09/04 04:26:23;;;;;;;10.68;6.30;;;;;;;16.05;61.69;101437.53;5100228;28;20482;-88
2022/09/04 04:29:29;;;;;;;7.55;5.97;;;;;;;16.04;61.75;101427.72;5100058;28;20124;-86
2022/09/04 04:32:13;;;;;;;8.82;6.28;;;;;;;16.02;61.78;101421.63;5103365;28;20063;-88
2022/09/04 04:35:00;;;;;;;10.20;7.32;;;;;;;16.03;62.69;101431.44;5111901;28;20159;-88
2022/09/04 04:38:05;;;;;;;9.15;7.15;;;;;;;16.13;63.19;101423.94;5103447;28;20035;-89
2022/09/04 04:40:40;;;;;;;11.57;7.03;;;;;;;16.17;62.79;101425.25;5095562;28;20460;-87
2022/09/04 04:43:15;;;;;;;12.38;8.27;;;;;;;16.15;62.89;101430.00;5104365;28;20027;-88
2022/09/04 04:45:49;;;;;;;12.60;8.50;;;;;;;16.13;62.61;101429.38;5105460;28;20055;-88
2022/09/04 04:48:53;;;;;;;11.27;8.50;;;;;;;16.21;62.88;101434.75;5110856;28;20101;-88
2022/09/04 04:51:58;;;;;;;13.07;8.25;;;;;;;15.83;63.63;101398.53;5107907;28;20039;-88
2022/09/04 04:54:50;;;;;;;10.77;7.55;;;;;;;16.00;63.05;101429.94;5109391;28;20024;-89
2022/09/04 04:57:34;;;;;;;11.02;7.18;;;;;;;16.09;63.13;101435.34;5100546;28;20127;-87
2022/09/04 05:00:18;;;;;;;12.55;7.13;;;;;;;16.23;62.71;101432.69;5108707;28;20126;-87
2022/09/04 05:03:21;;;;;;;11.82;6.95;;;;;;;16.27;62.42;101430.44;5098139;28;20032;-87
2022/09/04 05:06:11;;;;;;;9.18;6.65;;;;;;;16.28;62.43;101434.03;5101861;28;20114;-87
2022/09/04 05:08:58;;;;;;;9.82;6.72;;;;;;;16.42;61.72;101435.97;5101213;28;20112;-84
2022/09/04 05:11:39;;;;;;;8.23;6.05;;;;;;;16.43;61.23;101437.63;5096072;28;20028;-86
2022/09/04 05:14:26;;;;;;;9.30;6.03;;;;;;;16.66;60.85;101443.91;5090762;28;20032;-85
2022/09/04 05:17:01;;;;;;;8.73;5.82;;;;;;;18.20;56.86;101430.69;5105604;28;20440;-84
2022/09/04 05:19:42;;;;;;;6.65;5.50;;;;;;;19.23;51.89;101420.31;5091117;28;20028;-85
2022/09/04 05:22:29;;;;;;;7.97;5.32;;;;;;;20.07;49.82;101432.09;5111805;28;20032;-87
2022/09/04 05:25:06;;;;;;;8.57;5.13;;;;;;;20.55;47.97;101418.31;5113565;28;20460;-85
2022/09/04 05:27:40;;;;;;;6.25;4.78;;;;;;;21.20;46.35;101416.66;5118381;28;20087;-87
2022/09/04 05:30:24;;;;;;;6.63;4.90;;;;;;;21.58;45.49;101434.28;5125274;28;20098;-88
2022/09/04 05:33:08;;;;;;;8.18;4.75;;;;;;;22.08;44.97;101439.97;5112403;28;20039;-87
2022/09/04 05:35:36;;;;;;;8.90;4.80;;;;;;;22.37;44.50;101440.47;5110228;28;20411;-85
2022/09/04 05:38:25;;;;;;;7.13;5.05;;;;;;;22.61;43.77;101438.81;5105917;28;20484;-90
2022/09/04 05:41:09;;;;;;;7.55;4.78;;;;;;;23.04;42.63;101427.97;5100559;28;20058;-89
2022/09/04 05:44:16;;;;;;;6.75;4.65;;;;;;;23.35;42.08;101445.38;5073585;28;20415;-86
2022/09/04 05:47:25;;;;;;;7.15;4.70;;;;;;;23.59;40.50;101438.16;5100010;28;20357;-87
2022/09/04 05:50:09;;;;;;;7.43;4.50;;;;;;;23.39;40.25;101427.41;5101625;28;20150;-87
2022/09/04 05:53:06;;;;;;;5.68;4.38;;;;;;;23.75;40.04;101445.81;5099631;28;20096;-86
2022/09/04 05:56:06;;;;;;;7.32;4.28;;;;;;;23.93;39.66;101444.13;5105214;28;20116;-87
2022/09/04 05:59:13;;;;;;;7.38;4.05;;;;;;;24.29;38.77;101447.88;5067420;28;20048;-88
2022/09/04 06:02:03;;;;;;;5.63;3.65;;;;;;;24.36;38.94;101454.09;5026007;28;20034;-87
2022/09/04 06:04:47;;;;;;;10.52;3.90;;;;;;;24.64;38.17;101454.31;5021026;28;20098;-83
2022/09/04 06:07:47;;;;;;;6.97;3.70;;;;;;;24.69;37.83;101441.78;5009078;28;20099;-86
2022/09/04 06:10:23;;;;;;;6.93;3.80;;;;;;;24.88;37.90;101443.38;5054087;28;20055;-86
2022/09/04 06:13:12;;;;;;;7.20;3.67;;;;;;;24.74;37.68;101452.91;5067371;28;20146;-86
2022/09/04 06:16:16;;;;;;;5.30;3.65;;;;;;;24.46;38.59;101454.38;5078903;28;20580;-88
2022/09/04 06:19:28;;;;;;;13.00;3.78;;;;;;;24.66;38.31;101458.78;5073624;28;20044;-88
2022/09/04 06:22:19;;;;;;;5.10;3.53;;;;;;;24.72;37.83;101464.13;5043331;28;20112;-86
2022/09/04 06:24:56;;;;;;;4.80;3.40;;;;;;;24.93;36.66;101472.91;5098960;28;20043;-84
2022/09/04 06:27:56;;;;;;;7.05;3.35;;;;;;;25.00;37.25;101470.88;5107517;28;20027;-88
2022/09/04 06:30:23;;;;;;;8.30;2.80;;;;;;;24.95;36.62;101455.09;5084934;28;20601;-88
2022/09/04 06:33:04;;;;;;;4.32;3.10;;;;;;;24.91;36.54;101453.91;5055041;28;20044;-89
2022/09/04 06:35:48;;;;;;;4.20;2.78;;;;;;;25.20;36.09;101465.91;5052366;28;20033;-85
2022/09/04 06:38:35;;;;;;;5.28;2.50;;;;;;;25.25;36.08;101470.69;5078871;28;20113;-89
2022/09/04 06:41:26;;;;;;;3.47;2.60;;;;;;;25.37;35.56;101444.00;5094313;28;20024;-87
2022/09/04 06:44:20;;;;;;;4.20;2.80;;;;;;;25.45;35.70;101464.81;5089638;28;20082;-86
2022/09/04 06:47:02;;;;;;;3.60;2.77;;;;;;;25.68;35.11;101447.44;5073504;28;20040;-89
2022/09/04 06:49:56;;;;;;;5.05;2.75;;;;;;;25.88;34.42;101456.16;5077337;28;20329;-87
2022/09/04 06:52:54;;;;;;;4.47;2.70;;;;;;;25.99;34.25;101448.09;5074267;28;20040;-88
2022/09/04 06:55:43;;;;;;;5.53;2.30;;;;;;;26.17;33.26;101477.38;5087653;28;20035;-88
2022/09/04 06:58:42;;;;;;;3.47;2.58;;;;;;;25.83;34.32;101471.72;5092405;27;20082;-89
2022/09/04 07:01:46;;;;;;;3.90;2.88;;;;;;;25.89;34.76;101473.50;5123919;27;20050;-86
2022/09/04 07:04:32;;;;;;;6.68;2.72;;;;;;;26.06;34.40;101470.84;5135281;27;20027;-88
2022/09/04 07:07:25;;;;;;;3.90;2.65;;;;;;;25.78;35.07;101472.44;5134571;27;20570;-89
2022/09/04 07:10:18;;;;;;;5.45;2.67;;;;;;;25.86;35.42;101476.75;5122981;27;20019;-88
2022/09/04 07:13:00;;;;;;;4.57;2.80;;;;;;;26.02;35.04;101480.69;5146570;27;20020;-88
2022/09/04 07:15:59;;;;;;;4.10;2.58;;;;;;;26.28;34.60;101477.34;5121430;27;20036;-87
2022/09/04 07:19:02;;;;;;;4.32;2.92;;;;;;;26.43;34.72;101487.81;5101576;27;20035;-92
2022/09/04 07:21:43;;;;;;;4.28;2.70;;;;;;;26.60;34.45;101485.16;5129048;27;20098;-87
2022/09/04 07:24:30;;;;;;;4.45;2.95;;;;;;;27.10;33.60;101481.56;5087891;27;20099;-87
2022/09/04 07:27:05;;;;;;;5.10;3.00;;;;;;;27.35;33.04;101478.41;5128241;27;20059;-89
2022/09/04 07:29:54;;;;;;;4.93;2.83;;;;;;;27.78;32.77;101471.25;5099256;27;20499;-89
2022/09/04 07:32:24;;;;;;;4.93;3.30;;;;;;;27.70;32.51;101482.78;5094916;27;20598;-84
2022/09/04 07:34:57;;;;;;;3.80;2.90;;;;;;;27.75;32.71;101488.34;5092937;27;20028;-85
2022/09/04 07:38:02;;;;;;;5.32;3.00;;;;;;;27.81;32.49;101483.72;5096112;27;20047;-88
2022/09/04 07:40:57;;;;;;;3.33;2.80;;;;;;;27.91;31.99;101500.47;5089035;27;20043;-88
2022/09/04 07:43:29;;;;;;;3.63;2.85;;;;;;;28.16;31.62;101499.09;5090826;27;20688;-86
2022/09/04 07:46:12;;;;;;;5.85;3.03;;;;;;;28.48;31.30;101479.88;5121398;27;20402;-84
2022/09/04 07:48:42;;;;;;;5.53;2.95;;;;;;;28.96;30.95;101480.00;5111519;27;20534;-85
2022/09/04 07:51:20;;;;;;;3.30;2.88;;;;;;;29.89;29.41;101485.06;5108630;27;20426;-87
2022/09/04 07:53:55;;;;;;;4.10;2.95;;;;;;;30.31;28.43;101483.31;5096973;27;20023;-88
2022/09/04 07:56:48;;;;;;;5.07;3.22;;;;;;;30.62;27.83;101486.97;5124459;27;20482;-88
2022/09/04 07:59:48;;;;;;;4.88;3.20;;;;;;;31.18;27.25;101481.44;5104927;27;20123;-86
2022/09/04 08:02:28;;;;;;;5.55;3.30;;;;;;;31.62;26.34;101494.72;5118167;27;20031;-88
2022/09/04 08:05:20;;;;;;;6.45;3.33;;;;;;;32.21;25.97;101487.53;5108617;27;20034;-87
2022/09/04 08:08:21;;;;;;;3.40;2.88;;;;;;;32.49;25.57;101497.09;5109156;27;20035;-85
2022/09/04 08:11:01;;;;;;;5.38;2.83;;;;;;;32.98;25.29;101490.63;5052739;28;20076;-88
2022/09/04 08:13:59;;;;;;;4.75;2.75;;;;;;;33.87;23.54;101499.78;5109440;27;20039;-85
2022/09/04 08:16:58;;;;;;;5.65;3.03;;;;;;;34.35;22.94;101494.13;5115202;27;20043;-86
2022/09/04 08:19:48;;;;;;;4.20;2.80;;;;;;;33.21;24.50;101502.16;5110658;27;20079;-87
2022/09/04 08:22:44;;;;;;;3.13;2.83;;;;;;;32.67;24.75;101484.50;5122500;27;20043;-87
2022/09/04 08:25:24;;;;;;;4.28;2.75;;;;;;;33.83;23.27;101466.09;5091868;27;20051;-86
2022/09/04 08:28:27;;;;;;;4.05;2.67;;;;;;;35.68;21.00;101480.72;5088548;27;20070;-89
2022/09/04 08:31:16;;;;;;;3.38;2.20;;;;;;;36.42;20.19;101480.50;4994417;28;20033;-85
2022/09/04 08:34:06;;;;;;;5.88;2.58;;;;;;;37.14;19.69;101475.97;5095686;27;20392;-86
2022/09/04 08:37:05;;;;;;;2.70;2.30;;;;;;;38.33;18.60;101465.75;5129598;27;20023;-84
2022/09/04 08:39:46;;;;;;;2.72;2.25;;;;;;;36.90;20.07;101474.31;5110930;27;20027;-84
2022/09/04 08:42:37;;;;;;;4.32;2.20;;;;;;;35.71;21.19;101471.72;5110348;27;20529;-84
2022/09/04 08:45:10;;;;;;;3.20;2.40;;;;;;;34.71;22.65;101472.13;5103119;27;20083;-84
2022/09/04 08:47:54;;;;;;;5.50;2.75;;;;;;;33.25;24.61;101472.59;5127079;27;20106;-83
2022/09/04 08:50:34;;;;;;;;;;;;;;;32.20;25.27;101471.16;5118958;27;20034;-83
2022/09/04 08:53:11;;;;;;;4.13;2.60;;;;;;;30.86;27.36;101440.09;5109550;27;19916;-84
2022/09/04 08:55:45;;;;;;;5.60;3.20;;;;;;;30.09;28.97;101462.97;5100157;27;20039;-84
2022/09/04 08:58:34;;;;;;;4.57;3.60;;;;;;;29.97;29.44;101447.69;5117196;27;20047;-87
2022/09/04 09:01:19;;;;;;;4.32;3.00;;;;;;;29.81;29.68;101435.72;5131077;27;20062;-83
2022/09/04 09:03:52;;;;;;;5.28;3.10;;;;;;;29.54;30.07;101420.06;5119652;27;20027;-82
2022/09/04 09:06:54;;;;;;;6.15;3.50;;;;;;;29.28;30.47;101444.00;5094313;27;20035;-80
2022/09/04 09:09:38;;;;;;;4.80;3.15;;;;;;;28.23;31.81;101443.63;5119719;27;20035;-79
2022/09/04 09:12:16;;;;;;;3.90;3.20;;;;;;;28.31;32.16;101452.28;5103672;27;20039;-79
2022/09/04 09:15:03;;;;;;;3.72;2.70;;;;;;;28.70;31.37;101449.34;5105214;28;20068;-79
2022/09/04 09:18:10;;;;;;;4.55;2.88;;;;;;;29.16;30.02;101446.16;5122233;27;20446;-82
2022/09/04 09:21:13;;;;;;;3.38;2.67;;;;;;;30.64;28.21;101443.13;5128781;27;20038;-87
2022/09/04 09:24:03;;;;;;;4.80;2.50;;;;;;;29.48;29.62;101431.38;5114086;28;20040;-87
2022/09/04 09:26:37;;;;;;;6.40;3.40;;;;;;;28.57;31.61;101416.63;5118939;27;20362;-84
2022/09/04 09:29:27;;;;;;;5.05;3.30;;;;;;;28.33;32.51;101436.28;5097790;28;20038;-80
2022/09/04 09:32:21;;;;;;;8.32;4.15;;;;;;;27.81;33.13;101441.44;5114734;28;20035;-84
2022/09/04 09:35:46;;;;;;;5.47;3.75;;;;;;;27.88;33.50;101431.06;5117371;28;20077;-83
2022/09/04 09:38:29;;;;;;;5.97;4.15;;;;;;;27.86;34.20;101442.41;5128016;28;20403;-83
2022/09/04 09:41:36;;;;;;;9.77;4.60;;;;;;;28.88;32.54;101442.59;5127431;28;20035;-82
2022/09/04 09:44:40;;;;;;;10.23;4.40;;;;;;;28.62;32.33;101444.31;5122505;28;20045;-86
2022/09/04 09:47:18;;;;;;;8.23;4.47;;;;;;;28.69;32.32;101447.69;5123789;28;20027;-90
2022/09/04 09:50:02;;;;;;;18.05;3.67;;;;;;;31.71;28.74;101451.31;5105355;28;20089;-84
2022/09/04 09:52:49;;;;;;;3.83;2.55;;;;;;;35.07;22.56;101443.56;5124551;28;20032;-81
2022/09/04 09:55:30;;;;;;;4.60;2.50;;;;;;;33.70;23.83;101420.25;5116209;27;20035;-82
2022/09/04 09:58:07;;;;;;;4.60;3.30;;;;;;;32.65;25.58;101447.75;5108644;28;20483;-84
2022/09/04 10:00:43;;;;;;;5.57;3.47;;;;;;;31.64;27.15;101436.91;5084741;28;20039;-82
2022/09/04 10:03:50;;;;;;;7.53;3.67;;;;;;;30.91;28.27;101440.94;5131692;27;20027;-83
2022/09/04 10:06:52;;;;;;;5.75;3.65;;;;;;;30.17;29.88;101433.06;5129605;27;20048;-81
2022/09/04 10:09:24;;;;;;;6.20;3.70;;;;;;;29.85;30.05;101446.00;5115107;27;20036;-81
2022/09/04 10:11:52;;;;;;;4.60;3.80;;;;;;;29.53;30.44;101450.81;5132825;27;20050;-81
2022/09/04 10:14:36;;;;;;;5.00;3.88;;;;;;;29.30;31.70;101443.75;5123051;27;20038;-81
2022/09/04 10:17:13;;;;;;;6.43;3.97;;;;;;;29.18;32.07;101450.31;5115623;27;20122;-80
2022/09/04 10:19:50;;;;;;;7.85;4.03;;;;;;;28.89;32.57;101451.72;5133715;27;20573;-81
2022/09/04 10:22:33;;;;;;;5.20;3.67;;;;;;;28.92;31.87;101445.69;5126114;27;20063;-81
2022/09/04 10:25:12;;;;;;;8.10;4.07;;;;;;;28.33;32.55;101461.16;5108296;27;20432;-81
2022/09/04 10:28:09;;;;;;;6.88;4.05;;;;;;;28.52;32.27;101455.31;5133253;27;20027;-79
2022/09/04 10:31:05;;;;;;;6.30;3.67;;;;;;;28.36;32.81;101437.69;5118327;27;20031;-81
2022/09/04 10:33:55;;;;;;;5.80;3.80;;;;;;;28.45;32.63;101446.31;5112278;27;20150;-79
2022/09/04 10:36:48;;;;;;;3.90;3.42;;;;;;;28.62;32.54;101447.09;5133406;27;20527;-80
2022/09/04 10:42:27;;;;;;;4.05;2.65;;;;;;;28.62;31.60;101438.78;5133213;27;20143;-79
2022/09/04 10:45:17;;;;;;;4.07;2.92;;;;;;;28.92;31.98;101451.22;5130161;27;20035;-80
2022/09/04 10:47:55;;;;;;;6.25;3.00;;;;;;;28.86;31.71;101446.72;5111406;27;20268;-80
2022/09/04 10:50:45;;;;;;;12.55;3.40;;;;;;;28.54;32.56;101450.31;5120735;27;20031;-80
2022/09/04 10:53:38;;;;;;;3.70;3.15;;;;;;;28.61;32.23;101450.94;5110522;27;20031;-80
2022/09/04 10:56:11;;;;;;;6.00;3.22;;;;;;;28.47;32.35;101442.25;5115145;27;20095;-79
2022/09/04 10:58:55;;;;;;;4.75;2.88;;;;;;;28.50;32.75;101455.56;5124942;27;20046;-79
2022/09/04 11:01:58;;;;;;;5.72;2.50;;;;;;;28.35;32.14;101456.22;5117297;27;20055;-80
2022/09/04 11:04:37;;;;;;;7.70;2.60;;;;;;;28.00;33.30;101451.09;5124832;27;20035;-79
2022/09/04 11:07:25;;;;;;;5.45;2.90;;;;;;;27.64;34.86;101458.09;5112238;27;20533;-80
2022/09/04 11:10:15;;;;;;;3.63;2.70;;;;;;;27.32;34.77;101451.31;5113149;27;20108;-79
2022/09/04 11:12:58;;;;;;;3.45;2.55;;;;;;;27.56;34.32;101456.63;5116328;27;20027;-79
2022/09/04 11:15:49;;;;;;;7.40;2.50;;;;;;;27.35;34.40;101463.78;5114839;27;20039;-79
2022/09/04 11:18:25;;;;;;;3.13;2.35;;;;;;;27.26;34.38;101454.25;5122389;27;20050;-79
2022/09/04 11:20:50;;;;;;;6.07;2.33;;;;;;;27.12;34.29;101446.28;5131060;27;20027;-79
2022/09/04 11:23:28;;;;;;;4.00;2.50;;;;;;;27.34;34.11;101451.88;5132431;27;20472;-81
2022/09/04 11:26:05;;;;;;;3.33;2.40;;;;;;;27.34;34.34;101437.25;5129111;27;20027;-79
2022/09/04 11:28:43;;;;;;;5.38;2.28;;;;;;;27.42;33.89;101450.63;5132689;27;20033;-79
2022/09/04 11:31:38;;;;;;;3.95;2.20;;;;;;;26.85;34.61;101450.81;5130324;27;20035;-79
2022/09/04 11:34:24;;;;;;;3.15;2.17;;;;;;;27.09;34.46;101463.34;5112063;27;20479;-80
2022/09/04 11:37:14;;;;;;;2.85;2.00;;;;;;;26.90;34.58;101460.03;5124544;27;20019;-79
2022/09/04 11:39:39;;;;;;;6.53;2.30;;;;;;;26.95;35.07;101451.00;5130996;27;20103;-78
2022/09/04 11:42:27;;;;;;;5.63;2.35;;;;;;;26.93;34.70;101451.22;5126195;27;20475;-81
2022/09/04 11:45:04;;;;;;;7.25;2.40;;;;;;;26.61;35.14;101439.94;5093692;27;20095;-80
2022/09/04 11:47:49;;;;;;;3.17;2.28;;;;;;;26.81;35.10;101438.59;5112941;27;20567;-80
2022/09/04 11:50:46;;;;;;;7.00;2.47;;;;;;;27.02;34.55;101451.66;5128684;27;20114;-79
2022/09/04 11:53:30;;;;;;;5.57;2.30;;;;;;;27.11;34.35;101455.66;5112409;27;20027;-80
2022/09/04 11:56:02;;;;;;;4.45;2.55;;;;;;;27.63;33.62;101445.34;5131472;27;20076;-80
2022/09/04 11:58:49;;;;;;;4.50;2.17;;;;;;;27.91;33.10;101441.59;5095844;27;20138;-80
2022/09/04 12:01:30;;;;;;;3.10;2.08;;;;;;;27.85;32.79;101437.94;5131745;27;20038;-79
2022/09/04 12:04:19;;;;;;;3.55;2.10;;;;;;;27.93;32.58;101444.94;5115153;27;20067;-80
2022/09/04 12:07:05;;;;;;;3.13;2.05;;;;;;;27.99;32.26;101433.69;5127129;27;20500;-80
2022/09/04 12:10:00;;;;;;;3.95;2.13;;;;;;;27.97;32.34;101435.03;5109273;27;20091;-81
2022/09/04 12:12:47;;;;;;;5.47;2.15;;;;;;;27.78;32.01;101415.19;5109830;27;20505;-78
2022/09/04 12:15:53;;;;;;;3.75;2.20;;;;;;;27.43;33.24;101418.31;5116575;27;20514;-79
2022/09/04 12:18:53;;;;;;;3.15;2.30;;;;;;;27.31;33.79;101410.97;5110937;27;20058;-79
2022/09/04 12:21:51;;;;;;;2.72;2.20;;;;;;;27.30;34.43;101413.97;5127652;27;20042;-79
2022/09/04 12:24:45;;;;;;;3.22;2.25;;;;;;;27.30;34.11;101414.84;5128590;27;20023;-80
2022/09/04 12:27:29;;;;;;;4.53;2.30;;;;;;;27.27;33.94;101415.31;5130174;27;20027;-78
2022/09/04 12:30:09;;;;;;;3.97;2.30;;;;;;;27.19;34.06;101390.91;5093757;27;20050;-79
2022/09/04 12:33:12;;;;;;;2.83;2.20;;;;;;;27.51;33.62;101415.09;5108497;27;20035;-80
2022/09/04 12:36:15;;;;;;;5.10;2.30;;;;;;;27.55;33.29;101417.09;5124986;27;20039;-79
2022/09/04 12:39:14;;;;;;;4.97;2.20;;;;;;;27.70;33.82;101423.94;5126324;27;20023;-80
2022/09/04 12:42:25;;;;;;;3.10;2.20;;;;;;;27.64;33.01;101411.13;5093168;27;20055;-81
2022/09/04 12:45:00;;;;;;;3.78;2.22;;;;;;;27.72;33.16;101416.19;5131496;27;20034;-79
2022/09/04 12:47:59;;;;;;;4.07;2.10;;;;;;;27.72;32.62;101407.91;5122104;27;20027;-78
2022/09/04 12:50:52;;;;;;;5.63;1.95;;;;;;;27.42;32.72;101423.00;5038805;27;20097;-79
2022/09/04 12:53:43;;;;;;;4.60;1.88;;;;;;;27.47;32.26;101420.31;5131580;27;20027;-80